Time;durP1;ratioP1;P1;durP2;ratioP2;P2;SDS_P1;SDS_P2;PMS_P1;PMS_P2;Temp;Humidity;BMP_temperature;BMP_pressure;BME280_temperature;BME280_humidity;BME280_pressure;Samples;Min_cycle;Max_cycle;Signal;HPM_P1;HPM_P2
2024/01/09 00:01:47;;;;;;;;;;;;;;;5.71;46.59;102281.06;4213889;28;19927;-52
2024/01/09 00:03:49;;;;;;;;;;;;;;;5.71;46.61;102288.00;4213648;28;19969;-51
2024/01/09 00:05:50;;;;;;;;;;;;;;;5.70;46.68;102278.41;4213847;28;19924;-52
2024/01/09 00:07:52;;;;;;;;;;;;;;;5.71;46.65;102286.28;4213819;28;19920;-48
2024/01/09 00:09:55;;;;;;;;;;;;;;;5.69;46.67;102281.91;4213954;28;19920;-48
2024/01/09 00:11:57;;;;;;;;;;;;;;;5.69;46.69;102279.31;4213700;28;20398;-50
2024/01/09 00:13:59;;;;;;;;;;;;;;;5.69;46.59;102282.78;4213724;28;19948;-54
2024/01/09 00:16:00;;;;;;;;;;;;;;;5.69;46.38;102281.91;4212504;28;19939;-53
2024/01/09 00:18:02;;;;;;;;;;;;;;;5.69;46.59;102281.91;4213297;28;19920;-52
2024/01/09 00:20:04;;;;;;;;;;;;;;;5.70;46.49;102278.41;4213804;28;19920;-50
2024/01/09 00:22:06;;;;;;;;;;;;;;;5.69;46.62;102274.09;4213609;28;20357;-50
2024/01/09 00:24:07;;;;;;;;;;;;;;;5.68;46.55;102283.63;4212653;28;19959;-51
2024/01/09 00:26:09;;;;;;;;;;;;;;;5.67;46.43;102281.88;4213877;28;20406;-53
2024/01/09 00:28:10;;;;;;;;;;;;;;;5.67;46.42;102275.78;4213606;28;19920;-48
2024/01/09 00:30:12;;;;;;;;;;;;;;;5.65;46.54;102269.66;4213620;28;19963;-49
2024/01/09 00:32:14;;;;;;;;;;;;;;;5.65;46.45;102267.94;4213523;28;19943;-53
2024/01/09 00:34:15;;;;;;;;;;;;;;;5.65;46.56;102272.28;4213326;28;19920;-53
2024/01/09 00:36:18;;;;;;;;;;;;;;;5.64;46.45;102262.69;4213499;28;19920;-52
2024/01/09 00:38:19;;;;;;;;;;;;;;;5.64;46.38;102257.47;4213455;28;19920;-53
2024/01/09 00:40:21;;;;;;;;;;;;;;;5.64;46.45;102255.75;4213807;28;19920;-52
2024/01/09 00:42:23;;;;;;;;;;;;;;;5.63;46.45;102259.22;4213675;28;19927;-52
2024/01/09 00:44:24;;;;;;;;;;;;;;;5.63;46.35;102268.81;4213549;28;19920;-53
2024/01/09 00:46:27;;;;;;;;;;;;;;;5.62;46.33;102254.84;4213434;28;19923;-52
2024/01/09 00:48:29;;;;;;;;;;;;;;;5.60;46.26;102243.50;4213874;28;20019;-52
2024/01/09 00:50:31;;;;;;;;;;;;;;;5.60;46.28;102243.50;4216888;28;19965;-50
2024/01/09 00:52:32;;;;;;;;;;;;;;;5.60;46.34;102244.41;4216737;28;19924;-53
2024/01/09 00:54:34;;;;;;;;;;;;;;;5.61;46.29;102245.28;4216827;28;20010;-49
2024/01/09 00:56:35;;;;;;;;;;;;;;;5.60;46.22;102249.63;4215645;28;19943;-50
2024/01/09 00:58:37;;;;;;;;;;;;;;;5.61;46.35;102253.09;4216687;28;19931;-50
2024/01/09 01:00:38;;;;;;;;;;;;;;;5.61;46.11;102250.50;4216634;28;20003;-52
2024/01/09 01:02:40;;;;;;;;;;;;;;;5.59;46.29;102247.88;4215361;28;20016;-52
2024/01/09 01:04:42;;;;;;;;;;;;;;;5.60;46.15;102248.72;4216669;28;19949;-50
2024/01/09 01:06:44;;;;;;;;;;;;;;;5.59;46.18;102250.47;4216754;28;19920;-48
2024/01/09 01:08:46;;;;;;;;;;;;;;;5.58;46.15;102248.72;4216717;28;20027;-49
2024/01/09 01:10:48;;;;;;;;;;;;;;;5.59;46.23;102257.47;4216798;28;19924;-52
2024/01/09 01:12:50;;;;;;;;;;;;;;;5.59;46.32;102255.72;4216668;28;20378;-47
2024/01/09 01:14:51;;;;;;;;;;;;;;;5.59;46.10;102242.66;4216786;28;20003;-51
2024/01/09 01:16:53;;;;;;;;;;;;;;;5.59;45.94;102245.25;4216246;28;20302;-49
2024/01/09 01:18:54;;;;;;;;;;;;;;;5.59;45.86;102242.66;4216586;28;19920;-49
2024/01/09 01:20:56;;;;;;;;;;;;;;;5.58;46.15;102240.03;4216305;28;19965;-49
2024/01/09 01:22:57;;;;;;;;;;;;;;;5.59;45.93;102245.25;4216506;28;19928;-53
2024/01/09 01:24:59;;;;;;;;;;;;;;;5.59;46.02;102245.25;4216427;28;19927;-53
2024/01/09 01:27:01;;;;;;;;;;;;;;;5.59;45.96;102247.00;4216334;28;19973;-52
2024/01/09 01:29:02;;;;;;;;;;;;;;;5.57;46.13;102251.34;4216315;28;19924;-50
2024/01/09 01:31:04;;;;;;;;;;;;;;;5.55;46.16;102237.38;4215919;28;19950;-51
2024/01/09 01:33:06;;;;;;;;;;;;;;;5.53;46.14;102245.22;4216091;28;19920;-53
2024/01/09 01:35:08;;;;;;;;;;;;;;;5.54;46.04;102241.75;4216207;28;20407;-49
2024/01/09 01:37:14;;;;;;;;;;;;;;;5.55;45.79;102247.81;4216404;28;19920;-47
2024/01/09 01:39:15;;;;;;;;;;;;;;;5.54;45.71;102248.69;4216156;28;19920;-50
2024/01/09 01:41:17;;;;;;;;;;;;;;;5.54;45.85;102248.69;4216302;28;19991;-51
2024/01/09 01:43:19;;;;;;;;;;;;;;;5.53;46.02;102241.69;4216208;28;19920;-50
2024/01/09 01:45:21;;;;;;;;;;;;;;;5.52;45.72;102242.59;4215930;28;19919;-48
2024/01/09 01:47:23;;;;;;;;;;;;;;;5.52;45.91;102248.66;4215998;28;19978;-52
2024/01/09 01:49:25;;;;;;;;;;;;;;;5.53;45.79;102246.94;4215995;28;19920;-51
2024/01/09 01:51:27;;;;;;;;;;;;;;;5.51;45.83;102251.28;4216156;28;20291;-49
2024/01/09 01:53:30;;;;;;;;;;;;;;;5.50;45.98;102257.34;4216050;28;19920;-50
2024/01/09 01:55:33;;;;;;;;;;;;;;;5.46;45.96;102264.28;4215984;28;19981;-50
2024/01/09 01:57:35;;;;;;;;;;;;;;;5.46;45.90;102263.41;4216067;28;19920;-52
2024/01/09 01:59:40;;;;;;;;;;;;;;;5.44;45.86;102256.44;4215331;28;20010;-53
2024/01/09 02:01:43;;;;;;;;;;;;;;;5.44;45.65;102259.03;4216012;28;19924;-53
2024/01/09 02:03:46;;;;;;;;;;;;;;;5.43;45.75;102254.69;4215924;28;19946;-51
2024/01/09 02:05:48;;;;;;;;;;;;;;;5.43;45.73;102249.47;4215912;28;19928;-53
2024/01/09 02:07:53;;;;;;;;;;;;;;;5.42;45.64;102255.53;4215675;28;19931;-50
2024/01/09 02:09:55;;;;;;;;;;;;;;;5.41;45.68;102252.91;4214599;28;19920;-50
2024/01/09 02:11:57;;;;;;;;;;;;;;;5.39;45.45;102250.25;4215749;28;19949;-50
2024/01/09 02:13:58;;;;;;;;;;;;;;;5.36;45.61;102252.84;4214394;28;19962;-51
2024/01/09 02:16:00;;;;;;;;;;;;;;;5.37;45.58;102248.50;4215680;28;19923;-51
2024/01/09 02:18:02;;;;;;;;;;;;;;;5.36;45.59;102247.66;4215842;28;19927;-52
2024/01/09 02:20:07;;;;;;;;;;;;;;;5.38;45.58;102258.09;4215698;28;19926;-50
2024/01/09 02:22:09;;;;;;;;;;;;;;;5.37;45.70;102244.19;4215426;28;19920;-50
2024/01/09 02:24:10;;;;;;;;;;;;;;;5.36;45.53;102250.25;4215577;28;19920;-50
2024/01/09 02:26:17;;;;;;;;;;;;;;;5.34;45.57;102246.75;4215626;28;19920;-52
2024/01/09 02:28:50;;;;;;;;;;;;;;;5.33;45.54;102247.59;4215158;28;19920;-52
2024/01/09 02:30:53;;;;;;;;;;;;;;;5.35;45.45;102239.81;4215706;28;20776;-51
2024/01/09 02:32:56;;;;;;;;;;;;;;;5.35;45.39;102248.50;4215410;28;20275;-54
2024/01/09 02:34:57;;;;;;;;;;;;;;;5.35;45.31;102237.19;4215498;28;20338;-50
2024/01/09 02:36:59;;;;;;;;;;;;;;;5.34;45.36;102246.75;4231150;28;19920;-51
2024/01/09 02:39:00;;;;;;;;;;;;;;;5.33;45.40;102237.16;4215342;28;19963;-52
2024/01/09 02:41:02;;;;;;;;;;;;;;;5.32;45.36;102232.78;4215044;28;19963;-51
2024/01/09 02:43:04;;;;;;;;;;;;;;;5.31;45.38;102241.50;4214849;28;19920;-50
2024/01/09 02:45:05;;;;;;;;;;;;;;;5.30;45.20;102239.75;4215202;28;19920;-52
2024/01/09 02:47:07;;;;;;;;;;;;;;;5.31;45.36;102235.41;4215105;28;19920;-51
2024/01/09 02:49:10;;;;;;;;;;;;;;;5.30;45.33;102237.16;4215540;28;19968;-50
2024/01/09 02:51:12;;;;;;;;;;;;;;;5.30;45.36;102239.75;4215135;28;19997;-51
2024/01/09 02:53:15;;;;;;;;;;;;;;;5.31;45.40;102240.63;4214740;28;19920;-49
2024/01/09 02:55:16;;;;;;;;;;;;;;;5.31;45.27;102235.41;4214809;28;20015;-49
2024/01/09 02:57:18;;;;;;;;;;;;;;;5.20;45.37;102220.53;4214623;28;19924;-53
2024/01/09 02:59:20;;;;;;;;;;;;;;;5.30;45.24;102244.06;4215001;28;20128;-49
2024/01/09 03:01:23;;;;;;;;;;;;;;;5.28;45.12;102241.47;4215007;28;20340;-49
2024/01/09 03:03:25;;;;;;;;;;;;;;;5.27;45.22;102231.88;4214872;28;19920;-50
2024/01/09 03:05:27;;;;;;;;;;;;;;;5.25;45.28;102231.88;4214781;28;19965;-49
2024/01/09 03:07:31;;;;;;;;;;;;;;;5.27;45.10;102235.38;4215005;28;19962;-49
2024/01/09 03:09:33;;;;;;;;;;;;;;;5.26;45.09;102236.22;4214725;28;19920;-51
2024/01/09 03:11:35;;;;;;;;;;;;;;;5.26;45.01;102238.84;4214255;28;20003;-48
2024/01/09 03:13:37;;;;;;;;;;;;;;;5.26;45.17;102235.34;4214251;28;20409;-50
2024/01/09 03:15:39;;;;;;;;;;;;;;;5.25;45.11;102228.41;4214890;28;19967;-52
2024/01/09 03:17:40;;;;;;;;;;;;;;;5.24;45.24;102227.50;4214833;28;19924;-51
2024/01/09 03:19:45;;;;;;;;;;;;;;;5.23;45.23;102235.31;4214554;28;20447;-49
2024/01/09 03:21:48;;;;;;;;;;;;;;;5.23;45.12;102225.75;4214766;28;20390;-52
2024/01/09 03:23:50;;;;;;;;;;;;;;;5.22;45.10;102217.91;4214662;28;19977;-51
2024/01/09 03:25:52;;;;;;;;;;;;;;;5.21;45.02;102219.66;4214698;28;20003;-52
2024/01/09 03:27:55;;;;;;;;;;;;;;;5.20;45.00;102225.72;4214246;28;19920;-52
2024/01/09 03:29:57;;;;;;;;;;;;;;;5.20;45.02;102222.22;4214554;28;20062;-53
2024/01/09 03:31:59;;;;;;;;;;;;;;;5.18;44.98;102214.41;4214615;28;20014;-50
2024/01/09 03:34:00;;;;;;;;;;;;;;;5.18;44.95;102226.56;4212831;28;19966;-50
2024/01/09 03:36:03;;;;;;;;;;;;;;;5.19;44.93;102223.09;4214430;28;19920;-51
2024/01/09 03:38:05;;;;;;;;;;;;;;;5.17;44.98;102223.06;4214270;28;19927;-49
2024/01/09 03:40:07;;;;;;;;;;;;;;;5.17;44.92;102217.88;4214207;28;19973;-50
2024/01/09 03:42:09;;;;;;;;;;;;;;;5.16;44.98;102217.84;4213961;28;20393;-53
2024/01/09 03:44:12;;;;;;;;;;;;;;;5.16;44.95;102221.31;4214169;28;19927;-54
2024/01/09 03:46:14;;;;;;;;;;;;;;;5.17;45.00;102220.47;4214330;28;19920;-52
2024/01/09 03:48:15;;;;;;;;;;;;;;;5.16;44.82;102210.88;4214025;28;20011;-51
2024/01/09 03:50:17;;;;;;;;;;;;;;;5.16;45.05;102213.50;4214421;28;19923;-53
2024/01/09 03:52:19;;;;;;;;;;;;;;;5.15;45.01;102219.56;4214044;28;20318;-49
2024/01/09 03:54:21;;;;;;;;;;;;;;;5.15;44.75;102218.69;4214067;28;19927;-52
2024/01/09 03:56:25;;;;;;;;;;;;;;;5.14;44.87;102215.25;4213669;28;19933;-52
2024/01/09 03:58:27;;;;;;;;;;;;;;;5.14;44.74;102220.44;4214018;28;19951;-52
2024/01/09 04:00:28;;;;;;;;;;;;;;;5.12;45.05;102206.50;4213922;28;20025;-52
2024/01/09 04:02:30;;;;;;;;;;;;;;;5.12;44.85;102216.94;4212811;28;20398;-51
2024/01/09 04:04:32;;;;;;;;;;;;;;;5.11;44.67;102209.97;4214193;28;19920;-52
2024/01/09 04:06:34;;;;;;;;;;;;;;;5.10;45.00;102205.59;4214178;28;19920;-52
2024/01/09 04:08:35;;;;;;;;;;;;;;;5.09;44.91;102206.47;4213893;28;19927;-52
2024/01/09 04:10:37;;;;;;;;;;;;;;;5.09;44.62;102203.84;4213379;28;19920;-51
2024/01/09 04:12:39;;;;;;;;;;;;;;;5.09;44.54;102216.91;4213718;28;19924;-53
2024/01/09 04:14:40;;;;;;;;;;;;;;;5.09;44.92;102209.06;4213936;28;19924;-52
2024/01/09 04:16:44;;;;;;;;;;;;;;;5.10;44.70;102216.94;4213683;28;19924;-53
2024/01/09 04:18:45;;;;;;;;;;;;;;;5.08;44.83;102210.81;4213973;28;20026;-52
2024/01/09 04:20:47;;;;;;;;;;;;;;;5.08;44.67;102212.56;4213647;28;19950;-53
2024/01/09 04:22:49;;;;;;;;;;;;;;;5.08;44.72;102212.56;4212961;28;19931;-51
2024/01/09 04:24:50;;;;;;;;;;;;;;;5.08;44.85;102209.97;4213168;28;20330;-54
2024/01/09 04:26:52;;;;;;;;;;;;;;;5.08;44.78;102207.34;4214026;28;19920;-53
2024/01/09 04:28:53;;;;;;;;;;;;;;;5.08;44.62;102207.34;4213694;28;19920;-50
2024/01/09 04:30:56;;;;;;;;;;;;;;;5.08;44.71;102209.97;4213857;28;20386;-50
2024/01/09 04:32:58;;;;;;;;;;;;;;;5.06;44.68;102215.13;4213420;28;19919;-52
2024/01/09 04:34:59;;;;;;;;;;;;;;;5.07;44.68;102211.66;4213709;28;19935;-51
2024/01/09 04:37:01;;;;;;;;;;;;;;;5.08;44.63;102207.34;4212471;28;19927;-52
2024/01/09 04:39:03;;;;;;;;;;;;;;;5.07;44.69;102216.03;4213551;28;19920;-51
2024/01/09 04:41:04;;;;;;;;;;;;;;;5.08;44.72;102207.34;4213594;28;19948;-52
2024/01/09 04:43:06;;;;;;;;;;;;;;;5.07;45.08;102211.66;4213455;28;19920;-51
2024/01/09 04:45:07;;;;;;;;;;;;;;;5.07;44.69;102216.88;4213583;28;20370;-52
2024/01/09 04:47:13;;;;;;;;;;;;;;;5.07;44.59;102214.28;4213679;28;19959;-52
2024/01/09 04:49:14;;;;;;;;;;;;;;;5.05;44.74;102207.28;4213712;28;19955;-49
2024/01/09 04:51:16;;;;;;;;;;;;;;;5.05;44.54;102209.91;4213350;28;19947;-51
2024/01/09 04:53:21;;;;;;;;;;;;;;;5.03;44.58;102217.72;4213385;28;19982;-52
2024/01/09 04:55:22;;;;;;;;;;;;;;;5.03;44.59;102216.81;4213398;28;19926;-49
2024/01/09 04:57:24;;;;;;;;;;;;;;;5.02;44.78;102210.75;4213289;28;19949;-51
2024/01/09 04:59:28;;;;;;;;;;;;;;;5.03;44.43;102206.41;4213354;28;19920;-50
2024/01/09 05:01:30;;;;;;;;;;;;;;;5.03;44.64;102224.66;4213469;28;20342;-52
2024/01/09 05:03:32;;;;;;;;;;;;;;;5.03;44.58;102212.50;4213474;28;19951;-49
2024/01/09 05:05:33;;;;;;;;;;;;;;;5.03;44.65;102212.50;4213470;28;19920;-50
2024/01/09 05:07:35;;;;;;;;;;;;;;;5.03;44.64;102209.00;4213507;28;20340;-53
2024/01/09 05:09:36;;;;;;;;;;;;;;;5.05;44.47;102212.50;4213343;28;19927;-52
2024/01/09 05:11:38;;;;;;;;;;;;;;;5.04;44.72;102205.53;4213369;28;19990;-53
2024/01/09 05:13:40;;;;;;;;;;;;;;;5.04;44.46;102213.38;4213194;28;20358;-49
2024/01/09 05:15:41;;;;;;;;;;;;;;;5.03;44.52;102202.06;4213375;28;20077;-53
2024/01/09 05:17:45;;;;;;;;;;;;;;;5.03;44.55;102202.06;4213433;28;20318;-51
2024/01/09 05:19:46;;;;;;;;;;;;;;;5.02;44.74;102213.34;4213426;28;20288;-52
2024/01/09 05:21:49;;;;;;;;;;;;;;;5.01;44.75;102206.38;4213278;28;19930;-53
2024/01/09 05:23:51;;;;;;;;;;;;;;;5.02;44.86;102209.84;4213063;28;20382;-52
2024/01/09 05:25:52;;;;;;;;;;;;;;;5.03;44.90;102209.00;4213209;28;19920;-56
2024/01/09 05:27:54;;;;;;;;;;;;;;;5.04;44.58;102205.53;4213446;28;19923;-50
2024/01/09 05:29:56;;;;;;;;;;;;;;;5.05;44.71;102209.91;4213359;28;19927;-52
2024/01/09 05:31:57;;;;;;;;;;;;;;;5.04;44.75;102211.66;4213573;28;19932;-52
2024/01/09 05:33:59;;;;;;;;;;;;;;;5.04;44.53;102213.38;4213165;28;19977;-51
2024/01/09 05:36:01;;;;;;;;;;;;;;;5.03;44.74;102206.41;4215286;28;19920;-48
2024/01/09 05:38:02;;;;;;;;;;;;;;;5.02;44.66;102205.53;4215908;28;19926;-50
2024/01/09 05:40:18;;;;;;;;;;;;;;;5.03;44.65;102207.28;4216269;28;20405;-49
2024/01/09 05:42:20;;;;;;;;;;;;;;;5.03;44.67;102209.91;4216467;28;20275;-51
2024/01/09 05:44:22;;;;;;;;;;;;;;;5.03;44.74;102206.41;4216081;28;19920;-50
2024/01/09 05:46:23;;;;;;;;;;;;;;;5.01;44.71;102205.53;4216264;28;20409;-49
2024/01/09 05:48:25;;;;;;;;;;;;;;;5.01;44.63;102201.16;4216000;28;19920;-48
2024/01/09 05:50:27;;;;;;;;;;;;;;;5.02;44.60;102210.75;4216229;28;20015;-49
2024/01/09 05:52:28;;;;;;;;;;;;;;;5.01;44.68;102195.97;4215662;28;20023;-50
2024/01/09 05:54:30;;;;;;;;;;;;;;;5.01;44.44;102201.16;4215862;28;19935;-53
2024/01/09 05:56:32;;;;;;;;;;;;;;;5.01;44.91;102200.31;4216134;28;19962;-54
2024/01/09 05:58:33;;;;;;;;;;;;;;;5.02;44.78;102205.53;4215801;28;20014;-50
2024/01/09 06:00:35;;;;;;;;;;;;;;;5.02;44.74;102200.31;4215630;28;19920;-52
2024/01/09 06:02:37;;;;;;;;;;;;;;;5.01;44.94;102192.50;4216013;28;19920;-52
2024/01/09 06:04:39;;;;;;;;;;;;;;;5.02;44.71;102202.03;4215830;28;19958;-51
2024/01/09 06:06:40;;;;;;;;;;;;;;;5.02;44.62;102204.63;4215584;28;19930;-51
2024/01/09 06:08:42;;;;;;;;;;;;;;;5.02;44.72;102215.06;4215715;28;20018;-49
2024/01/09 06:10:44;;;;;;;;;;;;;;;5.02;44.74;102207.25;4215757;28;19919;-53
2024/01/09 06:12:46;;;;;;;;;;;;;;;5.01;44.76;102205.53;4215463;28;19935;-52
2024/01/09 06:14:47;;;;;;;;;;;;;;;5.01;44.61;102209.00;4215615;28;19927;-50
2024/01/09 06:16:49;;;;;;;;;;;;;;;5.01;44.71;102211.59;4215750;28;19974;-52
2024/01/09 06:18:50;;;;;;;;;;;;;;;5.01;44.55;102209.00;4215765;28;19967;-51
2024/01/09 06:20:52;;;;;;;;;;;;;;;5.01;44.89;102201.16;4215115;28;19950;-51
2024/01/09 06:22:54;;;;;;;;;;;;;;;5.02;44.68;102217.69;4215618;28;20086;-51
2024/01/09 06:24:56;;;;;;;;;;;;;;;4.99;44.62;102210.69;4214492;28;19927;-53
2024/01/09 06:26:58;;;;;;;;;;;;;;;5.00;44.54;102215.06;4215622;28;19920;-51
2024/01/09 06:28:59;;;;;;;;;;;;;;;5.01;44.57;102215.97;4214211;28;19920;-51
2024/01/09 06:31:01;;;;;;;;;;;;;;;5.01;44.65;102219.41;4215528;28;19931;-51
2024/01/09 06:33:06;;;;;;;;;;;;;;;5.01;44.67;102213.34;4215480;28;19920;-51
2024/01/09 06:35:08;;;;;;;;;;;;;;;5.00;44.50;102217.66;4215489;28;20338;-52
2024/01/09 06:37:09;;;;;;;;;;;;;;;5.00;44.76;102212.44;4215068;28;19944;-53
2024/01/09 06:39:11;;;;;;;;;;;;;;;5.02;44.72;102221.19;4215203;28;20412;-52
2024/01/09 06:41:13;;;;;;;;;;;;;;;5.02;44.54;102218.56;4215181;28;19920;-52
2024/01/09 06:43:15;;;;;;;;;;;;;;;5.01;44.59;102216.81;4215291;28;19959;-52
2024/01/09 06:45:17;;;;;;;;;;;;;;;5.02;44.57;102217.69;4215330;28;20018;-52
2024/01/09 06:47:18;;;;;;;;;;;;;;;5.01;44.64;102213.34;4214067;28;19920;-51
2024/01/09 06:49:20;;;;;;;;;;;;;;;5.01;44.65;102214.22;4214823;28;20023;-52
2024/01/09 06:51:22;;;;;;;;;;;;;;;5.01;44.53;102211.59;4215125;28;19920;-51
2024/01/09 06:53:26;;;;;;;;;;;;;;;5.01;44.60;102209.00;4214982;28;19920;-53
2024/01/09 06:55:28;;;;;;;;;;;;;;;5.00;44.64;102222.88;4215083;28;19963;-52
2024/01/09 06:57:30;;;;;;;;;;;;;;;4.99;44.74;102217.66;4215018;28;19965;-53
2024/01/09 06:59:31;;;;;;;;;;;;;;;4.98;44.68;102219.38;4214978;28;20352;-48
2024/01/09 07:01:35;;;;;;;;;;;;;;;4.99;44.85;102215.06;4215274;28;19924;-51
2024/01/09 07:03:37;;;;;;;;;;;;;;;4.98;44.68;102219.38;4215031;28;19920;-51
2024/01/09 07:05:38;;;;;;;;;;;;;;;4.98;44.55;102215.91;4214759;28;19955;-51
2024/01/09 07:07:41;;;;;;;;;;;;;;;4.98;44.72;102221.13;4214797;28;19919;-53
2024/01/09 07:09:51;;;;;;;;;;;;;;;4.97;44.66;102217.66;4214741;28;19959;-53
2024/01/09 07:11:53;;;;;;;;;;;;;;;4.96;44.62;102221.09;4214777;28;19931;-53
2024/01/09 07:13:54;;;;;;;;;;;;;;;4.96;44.64;102218.50;4214837;28;19924;-53
2024/01/09 07:15:57;;;;;;;;;;;;;;;4.94;44.62;102223.69;4214946;28;19920;-51
2024/01/09 07:17:58;;;;;;;;;;;;;;;4.94;44.72;102218.47;4214853;28;19924;-53
2024/01/09 07:20:01;;;;;;;;;;;;;;;4.95;44.73;102224.56;4214395;28;20467;-53
2024/01/09 07:22:03;;;;;;;;;;;;;;;4.93;44.81;102223.66;4214791;28;19920;-50
2024/01/09 07:24:05;;;;;;;;;;;;;;;4.91;44.86;102217.53;4214463;28;19920;-51
2024/01/09 07:26:07;;;;;;;;;;;;;;;4.91;44.99;102226.25;4214626;28;19920;-53
2024/01/09 07:28:08;;;;;;;;;;;;;;;4.91;44.78;102223.66;4214886;28;20386;-54
2024/01/09 07:30:10;;;;;;;;;;;;;;;4.89;44.89;102222.75;4214606;28;20010;-52
2024/01/09 07:32:12;;;;;;;;;;;;;;;4.90;44.67;102227.13;4214593;28;19955;-53
2024/01/09 07:34:14;;;;;;;;;;;;;;;4.89;44.83;102222.75;4214295;28;20287;-53
2024/01/09 07:36:16;;;;;;;;;;;;;;;4.90;44.52;102219.28;4214465;28;19920;-50
2024/01/09 07:38:23;;;;;;;;;;;;;;;4.90;44.64;102218.44;4214604;28;19920;-49
2024/01/09 07:40:25;;;;;;;;;;;;;;;4.90;44.59;102218.44;4214452;28;19920;-52
2024/01/09 07:42:26;;;;;;;;;;;;;;;4.91;44.64;102226.25;4214565;28;20028;-48
2024/01/09 07:44:28;;;;;;;;;;;;;;;4.91;44.56;102222.75;4214464;28;19938;-51
2024/01/09 07:46:30;;;;;;;;;;;;;;;4.90;44.41;102227.13;4214474;28;19946;-52
2024/01/09 07:48:32;;;;;;;;;;;;;;;4.90;44.54;102229.72;4213895;28;19930;-51
2024/01/09 07:50:34;;;;;;;;;;;;;;;4.91;44.56;102221.03;4214290;28;19923;-49
2024/01/09 07:52:35;;;;;;;;;;;;;;;4.91;44.59;102233.19;4214475;28;20010;-50
2024/01/09 07:54:37;;;;;;;;;;;;;;;4.91;44.65;102233.19;4214111;28;19919;-52
2024/01/09 07:56:38;;;;;;;;;;;;;;;4.88;44.69;102231.44;4214184;28;19968;-53
2024/01/09 07:58:40;;;;;;;;;;;;;;;4.88;44.68;102228.81;4213808;28;19933;-52
2024/01/09 08:00:43;;;;;;;;;;;;;;;4.88;44.49;102228.81;4213850;28;19920;-54
2024/01/09 08:02:45;;;;;;;;;;;;;;;4.89;44.69;102233.19;4214057;28;19920;-53
2024/01/09 08:04:47;;;;;;;;;;;;;;;4.88;44.61;102238.38;4214227;28;19927;-50
2024/01/09 08:06:52;;;;;;;;;;;;;;;4.87;44.58;102240.13;4214207;28;19969;-51
2024/01/09 08:08:53;;;;;;;;;;;;;;;4.86;44.70;102238.38;4214093;28;19920;-53
2024/01/09 08:10:55;;;;;;;;;;;;;;;4.86;44.66;102238.38;4213928;28;19920;-51
2024/01/09 08:12:56;;;;;;;;;;;;;;;4.86;44.56;102235.75;4214071;28;19939;-50
2024/01/09 08:14:58;;;;;;;;;;;;;;;4.86;44.68;102233.16;4213693;28;19927;-52
2024/01/09 08:17:00;;;;;;;;;;;;;;;4.87;44.59;102241.84;4213665;28;19920;-53
2024/01/09 08:19:01;;;;;;;;;;;;;;;4.87;44.50;102242.72;4213916;28;19978;-49
2024/01/09 08:21:04;;;;;;;;;;;;;;;4.86;44.45;102246.19;4213895;28;19920;-51
2024/01/09 08:23:05;;;;;;;;;;;;;;;4.84;44.71;102244.44;4213809;28;20354;-51
2024/01/09 08:25:07;;;;;;;;;;;;;;;4.84;44.54;102252.25;4213753;28;20442;-52
2024/01/09 08:27:08;;;;;;;;;;;;;;;4.82;44.49;102246.13;4213695;28;19977;-49
2024/01/09 08:29:10;;;;;;;;;;;;;;;4.82;44.56;102260.03;4213925;28;19965;-50
2024/01/09 08:31:12;;;;;;;;;;;;;;;4.81;44.56;102247.84;4213465;28;19955;-49
2024/01/09 08:33:13;;;;;;;;;;;;;;;4.80;44.66;102256.53;4212636;28;19927;-51
2024/01/09 08:35:15;;;;;;;;;;;;;;;4.79;44.59;102260.00;4213926;28;20458;-52
2024/01/09 08:37:20;;;;;;;;;;;;;;;4.79;44.49;102257.38;4213771;28;19927;-50
2024/01/09 08:39:22;;;;;;;;;;;;;;;4.79;44.42;102252.19;4213725;28;19928;-49
2024/01/09 08:41:24;;;;;;;;;;;;;;;4.78;44.27;102260.84;4213411;28;19927;-49
2024/01/09 08:43:25;;;;;;;;;;;;;;;4.77;44.51;102259.94;4213844;28;19920;-53
2024/01/09 08:45:27;;;;;;;;;;;;;;;4.77;44.52;102261.69;4213588;28;19963;-50
2024/01/09 08:47:28;;;;;;;;;;;;;;;4.76;44.31;102267.75;4213635;28;19974;-50
2024/01/09 08:49:30;;;;;;;;;;;;;;;4.75;44.52;102268.59;4212457;28;19947;-54
2024/01/09 08:51:32;;;;;;;;;;;;;;;4.73;44.39;102263.38;4213746;28;20018;-51
2024/01/09 08:53:34;;;;;;;;;;;;;;;4.73;44.13;102260.78;4213608;28;19926;-51
2024/01/09 08:55:36;;;;;;;;;;;;;;;4.72;44.22;102260.78;4213347;28;19981;-52
2024/01/09 08:57:38;;;;;;;;;;;;;;;4.73;44.19;102258.16;4213796;28;20371;-50
2024/01/09 08:59:39;;;;;;;;;;;;;;;4.72;44.39;102266.84;4213395;28;19919;-49
2024/01/09 09:01:41;;;;;;;;;;;;;;;4.72;44.00;102261.63;4213268;28;19926;-48
2024/01/09 09:03:43;;;;;;;;;;;;;;;4.72;44.02;102268.59;4213489;28;19927;-49
2024/01/09 09:05:45;;;;;;;;;;;;;;;4.71;44.20;102265.09;4213682;28;19927;-50
2024/01/09 09:07:46;;;;;;;;;;;;;;;4.70;44.17;102263.31;4213475;28;20302;-51
2024/01/09 09:09:48;;;;;;;;;;;;;;;4.71;44.17;102266.84;4214693;28;19949;-52
2024/01/09 09:11:49;;;;;;;;;;;;;;;4.71;43.89;102266.84;4216736;28;19943;-52
2024/01/09 09:13:51;;;;;;;;;;;;;;;4.70;44.02;102265.94;4216877;28;19999;-53
2024/01/09 09:15:53;;;;;;;;;;;;;;;4.71;43.88;102274.66;4216513;28;19994;-50
2024/01/09 09:17:54;;;;;;;;;;;;;;;4.70;44.04;102262.47;4216764;28;19920;-51
2024/01/09 09:19:57;;;;;;;;;;;;;;;4.70;43.94;102263.31;4216455;28;19924;-52
2024/01/09 09:22:01;;;;;;;;;;;;;;;4.71;43.84;102270.31;4216540;28;20303;-53
2024/01/09 09:24:05;;;;;;;;;;;;;;;4.71;43.90;102261.63;4216343;28;19963;-51
2024/01/09 09:26:06;;;;;;;;;;;;;;;4.71;43.86;102259.88;4216368;28;19919;-52
2024/01/09 09:28:08;;;;;;;;;;;;;;;4.72;43.87;102258.16;4216537;28;20400;-52
2024/01/09 09:30:10;;;;;;;;;;;;;;;4.72;43.90;102260.78;4214961;28;19924;-53
2024/01/09 09:32:12;;;;;;;;;;;;;;;4.72;43.93;102259.03;4216691;28;20284;-53
2024/01/09 09:34:14;;;;;;;;;;;;;;;4.72;43.96;102268.59;4216256;28;19926;-50
2024/01/09 09:36:16;;;;;;;;;;;;;;;4.72;43.87;102260.78;4216338;28;20027;-53
2024/01/09 09:38:19;;;;;;;;;;;;;;;4.72;43.92;102260.78;4216489;28;19920;-52
2024/01/09 09:40:23;;;;;;;;;;;;;;;4.71;43.77;102264.22;4216442;28;20404;-52
2024/01/09 09:42:25;;;;;;;;;;;;;;;4.72;43.71;102263.38;4216252;28;19962;-53
2024/01/09 09:44:27;;;;;;;;;;;;;;;4.70;43.65;102265.94;4214929;28;19919;-53
2024/01/09 09:46:30;;;;;;;;;;;;;;;4.71;43.78;102269.44;4216038;28;19924;-52
2024/01/09 09:48:32;;;;;;;;;;;;;;;4.70;43.65;102265.06;4216058;28;20360;-50
2024/01/09 09:50:33;;;;;;;;;;;;;;;4.71;43.70;102261.63;4216087;28;19920;-51
2024/01/09 09:52:40;;;;;;;;;;;;;;;4.70;43.71;102262.47;4214901;28;20018;-51
2024/01/09 09:54:42;;;;;;;;;;;;;;;4.69;43.67;102265.94;4216055;28;20011;-51
2024/01/09 09:56:43;;;;;;;;;;;;;;;4.68;43.87;102259.84;4215992;28;19930;-53
2024/01/09 09:58:45;;;;;;;;;;;;;;;4.69;43.61;102263.31;4215493;28;19973;-51
2024/01/09 10:00:47;;;;;;;;;;;;;;;4.68;43.63;102258.97;4216266;28;19920;-50
2024/01/09 10:02:51;;;;;;;;;;;;;;;4.67;43.48;102267.66;4215925;28;19920;-51
2024/01/09 10:04:52;;;;;;;;;;;;;;;4.66;43.70;102264.16;4215967;28;19923;-53
2024/01/09 10:06:55;;;;;;;;;;;;;;;4.68;43.55;102266.78;4216133;28;19973;-52
2024/01/09 10:09:00;;;;;;;;;;;;;;;4.66;43.51;102266.75;4216009;28;19947;-54
2024/01/09 10:11:02;;;;;;;;;;;;;;;4.68;43.66;102258.97;4215879;28;20302;-54
2024/01/09 10:13:03;;;;;;;;;;;;;;;4.67;43.48;102265.06;4215575;28;20390;-52
2024/01/09 10:15:09;;;;;;;;;;;;;;;4.67;43.48;102262.44;4215900;28;19920;-52
2024/01/09 10:17:12;;;;;;;;;;;;;;;4.67;43.47;102265.06;4215773;28;19931;-52
2024/01/09 10:19:14;;;;;;;;;;;;;;;4.67;43.51;102258.09;4215626;28;19978;-50
2024/01/09 10:21:16;;;;;;;;;;;;;;;4.67;43.43;102249.41;4215536;28;20003;-54
2024/01/09 10:23:18;;;;;;;;;;;;;;;4.66;43.61;102258.94;4215755;28;19951;-53
2024/01/09 10:25:20;;;;;;;;;;;;;;;4.66;43.62;102253.72;4215594;28;19920;-52
2024/01/09 10:27:22;;;;;;;;;;;;;;;4.66;43.39;102258.09;4215287;28;19927;-51
2024/01/09 10:29:24;;;;;;;;;;;;;;;4.67;43.47;102252.03;4215794;28;20007;-51
2024/01/09 10:31:25;;;;;;;;;;;;;;;4.67;43.61;102252.88;4215518;28;19920;-53
2024/01/09 10:33:27;;;;;;;;;;;;;;;4.66;43.59;102248.53;4215536;28;20384;-50
2024/01/09 10:35:29;;;;;;;;;;;;;;;4.67;43.51;102249.41;4215404;28;20450;-52
2024/01/09 10:37:31;;;;;;;;;;;;;;;4.68;43.35;102252.03;4215365;28;19973;-50